createdAt,value
2019-06-01T00:00:54.959Z,99.90
2019-06-01T00:03:24.527Z,99.90
2019-06-01T00:05:53.851Z,99.90
2019-06-01T00:08:23.139Z,99.90
2019-06-01T00:10:55.184Z,99.90
2019-06-01T00:13:24.805Z,99.90
2019-06-01T00:15:55.848Z,99.90
2019-06-01T00:18:25.149Z,99.90
2019-06-01T00:20:54.972Z,99.90
2019-06-01T00:23:24.256Z,99.90
2019-06-01T00:25:53.879Z,99.90
2019-06-01T00:28:23.168Z,99.90
2019-06-01T00:30:52.482Z,99.90
2019-06-01T00:33:23.486Z,99.90
2019-06-01T00:35:52.805Z,99.90
2019-06-01T00:38:22.177Z,99.90
2019-06-01T00:40:52.038Z,99.90
2019-06-01T00:43:21.488Z,99.90
2019-06-01T00:45:51.282Z,99.90
2019-06-01T00:48:20.654Z,99.90
2019-06-01T00:50:51.007Z,99.90
2019-06-01T00:53:20.861Z,99.90
2019-06-01T00:55:51.480Z,99.90
2019-06-01T00:58:20.997Z,99.90
2019-06-01T01:00:51.976Z,99.90
2019-06-01T01:03:21.779Z,99.90
2019-06-01T01:06:33.280Z,99.90
2019-06-01T01:09:02.722Z,99.90
2019-06-01T01:11:32.373Z,99.90
2019-06-01T01:14:01.717Z,99.90
2019-06-01T01:16:31.062Z,99.90
2019-06-01T01:19:00.366Z,99.90
2019-06-01T01:21:29.675Z,99.90
2019-06-01T01:23:59.007Z,99.90
2019-06-01T01:26:28.670Z,99.90
2019-06-01T01:28:57.982Z,99.90
2019-06-01T01:31:27.293Z,99.90
2019-06-01T01:33:57.645Z,99.90
2019-06-01T01:36:27.176Z,99.90
2019-06-01T01:38:56.489Z,99.90
2019-06-01T01:41:25.880Z,99.90
2019-06-01T01:43:56.579Z,99.90
2019-06-01T01:46:28.325Z,99.90
2019-06-01T01:48:58.198Z,99.90
2019-06-01T01:51:27.935Z,99.90
2019-06-01T01:53:58.725Z,99.90
2019-06-01T01:56:29.893Z,99.90
2019-06-01T01:58:59.252Z,99.90
2019-06-01T02:01:28.539Z,99.90
2019-06-01T02:03:59.092Z,99.90
2019-06-01T02:06:29.538Z,99.90
2019-06-01T02:08:59.424Z,99.90
2019-06-01T02:11:29.051Z,99.90
2019-06-01T02:13:59.783Z,99.90
2019-06-01T02:16:29.256Z,99.90
2019-06-01T02:18:58.905Z,99.90
2019-06-01T02:21:30.370Z,99.90
2019-06-01T02:24:01.273Z,99.90
2019-06-01T02:26:33.356Z,99.90
2019-06-01T02:29:04.213Z,99.90
2019-06-01T02:31:41.612Z,99.90
2019-06-01T02:34:06.146Z,99.90
2019-06-01T02:36:35.613Z,99.90
2019-06-01T02:39:11.042Z,99.90
2019-06-01T02:41:40.695Z,99.90
2019-06-01T02:44:10.000Z,99.90
2019-06-01T02:46:39.392Z,99.90
2019-06-01T02:49:08.748Z,99.90
2019-06-01T02:51:38.069Z,99.90
2019-06-01T02:54:07.457Z,99.90
2019-06-01T02:56:37.095Z,99.90
2019-06-01T02:59:06.852Z,99.90
2019-06-01T03:01:38.210Z,99.90
2019-06-01T03:04:10.221Z,99.90
2019-06-01T03:06:42.959Z,99.90
2019-06-01T03:09:13.601Z,99.90
2019-06-01T03:11:43.445Z,99.90
2019-06-01T03:14:13.442Z,99.90
2019-06-01T03:16:43.819Z,99.90
2019-06-01T03:19:16.859Z,99.90
2019-06-01T03:21:49.629Z,99.90
2019-06-01T03:24:23.431Z,99.90
2019-06-01T03:26:55.905Z,99.90
2019-06-01T03:29:29.914Z,99.90
2019-06-01T03:32:20.692Z,99.90
2019-06-01T03:34:30.456Z,99.90
2019-06-01T03:37:01.072Z,99.90
2019-06-01T03:39:31.383Z,99.90
2019-06-01T03:42:03.338Z,99.90
2019-06-01T03:44:33.031Z,99.90
2019-06-01T03:47:03.630Z,99.90
2019-06-01T03:49:33.171Z,99.90
2019-06-01T03:52:02.722Z,99.90
2019-06-01T03:54:32.046Z,99.90
2019-06-01T03:57:01.401Z,99.90
2019-06-01T03:59:30.749Z,99.90
2019-06-01T04:02:00.868Z,99.90
2019-06-01T04:04:30.157Z,99.90
2019-06-01T04:07:03.326Z,99.90
2019-06-01T04:09:32.753Z,99.90
2019-06-01T04:12:03.520Z,99.90
2019-06-01T04:14:33.001Z,99.90
2019-06-01T04:17:02.313Z,99.90
2019-06-01T04:19:31.635Z,99.90
2019-06-01T04:22:01.942Z,99.90
2019-06-01T04:24:31.641Z,99.90
2019-06-01T04:27:02.074Z,99.90
2019-06-01T04:29:31.468Z,99.90
2019-06-01T04:32:02.382Z,99.90
2019-06-01T04:34:32.012Z,99.90
2019-06-01T04:37:01.281Z,99.90
2019-06-01T04:39:30.684Z,99.90
2019-06-01T04:42:00.682Z,99.90
2019-06-01T04:44:30.025Z,99.90
2019-06-01T04:46:59.374Z,99.90
2019-06-01T04:49:28.710Z,99.90
2019-06-01T04:51:58.024Z,99.90
2019-06-01T04:54:27.398Z,99.90
2019-06-01T04:56:56.708Z,99.90
2019-06-01T04:59:26.056Z,99.90
2019-06-01T05:01:55.380Z,99.90
2019-06-01T05:04:24.734Z,99.90
2019-06-01T05:06:54.035Z,99.90
2019-06-01T05:09:23.367Z,99.90
2019-06-01T05:11:52.694Z,99.90
2019-06-01T05:14:22.037Z,99.90
2019-06-01T05:16:51.451Z,99.90
2019-06-01T05:19:20.870Z,99.90
2019-06-01T05:21:50.193Z,99.90
2019-06-01T05:24:19.520Z,99.90
2019-06-01T05:26:48.875Z,99.90
2019-06-01T05:29:18.321Z,99.90
2019-06-01T05:31:47.635Z,99.90
2019-06-01T05:34:18.370Z,99.90
2019-06-01T05:36:47.834Z,99.90
2019-06-01T05:39:18.562Z,99.90
2019-06-01T05:41:49.658Z,99.90
2019-06-01T05:44:19.372Z,99.90
2019-06-01T05:46:48.977Z,99.90
2019-06-01T05:49:18.654Z,99.90
2019-06-01T05:51:48.187Z,99.90
2019-06-01T05:54:18.733Z,99.90
2019-06-01T05:56:48.396Z,99.90
2019-06-01T05:59:18.243Z,99.90
2019-06-01T06:01:47.805Z,99.90
2019-06-01T06:04:17.558Z,99.90
2019-06-01T06:06:47.137Z,99.90
2019-06-01T06:09:17.163Z,99.90
2019-06-01T06:11:46.635Z,99.90
2019-06-01T06:14:15.973Z,99.90
2019-06-01T06:16:45.302Z,99.90
2019-06-01T06:19:17.891Z,99.90
2019-06-01T06:21:45.949Z,99.90
2019-06-01T06:24:16.325Z,99.90
2019-06-01T06:26:45.746Z,99.90
2019-06-01T06:29:18.835Z,99.90
2019-06-01T06:31:48.340Z,99.90
2019-06-01T06:34:17.650Z,99.90
2019-06-01T06:36:47.334Z,99.90
2019-06-01T06:39:17.822Z,99.90
2019-06-01T06:41:47.459Z,99.90
2019-06-01T06:44:16.783Z,99.90
2019-06-01T06:46:46.129Z,99.90
2019-06-01T06:49:15.426Z,99.90
2019-06-01T06:51:45.010Z,99.90
2019-06-01T06:54:14.956Z,99.90
2019-06-01T06:56:45.404Z,99.90
2019-06-01T06:59:16.403Z,99.90
2019-06-01T07:01:45.961Z,99.90
2019-06-01T07:04:15.599Z,99.90
2019-06-01T07:06:44.910Z,99.90
2019-06-01T07:09:14.240Z,99.90
2019-06-01T07:11:43.530Z,99.90
2019-06-01T07:14:12.869Z,99.90
2019-06-01T07:16:42.239Z,99.90
2019-06-01T07:19:11.559Z,99.90
2019-06-01T07:21:40.934Z,99.90
2019-06-01T07:24:10.323Z,99.90
2019-06-01T07:26:39.549Z,99.90
2019-06-01T07:29:08.845Z,99.90
2019-06-01T07:31:38.301Z,99.90
2019-06-01T07:34:07.885Z,99.90
2019-06-01T07:36:37.206Z,99.90
2019-06-01T07:39:07.850Z,99.90
2019-06-01T07:41:37.190Z,99.90
2019-06-01T07:44:06.569Z,99.90
2019-06-01T07:46:35.952Z,99.90
2019-06-01T07:49:05.680Z,99.90
2019-06-01T07:51:34.991Z,99.90
2019-06-01T07:54:05.291Z,99.90
2019-06-01T07:56:34.573Z,99.90
2019-06-01T07:59:03.968Z,99.90
2019-06-01T08:01:33.273Z,99.90
2019-06-01T08:04:02.617Z,99.90
2019-06-01T08:06:32.740Z,99.90
2019-06-01T08:09:02.416Z,99.90
2019-06-01T08:11:33.464Z,99.90
2019-06-01T08:14:03.413Z,99.90
2019-06-01T08:16:32.695Z,99.90
2019-06-01T08:19:02.038Z,99.90
2019-06-01T08:21:32.396Z,99.90
2019-06-01T08:24:02.097Z,99.90
2019-06-01T08:26:32.682Z,99.90
2019-06-01T08:29:02.289Z,99.90
2019-06-01T08:31:34.265Z,99.90
2019-06-01T08:34:03.911Z,99.90
2019-06-01T08:36:33.919Z,99.90
2019-06-01T08:39:04.526Z,99.90
2019-06-01T08:41:33.825Z,99.90
2019-06-01T08:44:03.188Z,99.90
2019-06-01T08:46:33.697Z,99.90
2019-06-01T08:49:03.247Z,99.90
2019-06-01T08:51:32.566Z,99.90
2019-06-01T08:54:01.965Z,99.90
2019-06-01T08:56:32.304Z,99.90
2019-06-01T08:59:02.011Z,99.90
2019-06-01T09:01:32.663Z,99.90
2019-06-01T09:04:02.202Z,99.90
2019-06-01T09:06:31.555Z,99.90
2019-06-01T09:09:00.884Z,99.90
2019-06-01T09:11:31.134Z,99.90
2019-06-01T09:14:00.599Z,99.90
2019-06-01T09:16:29.931Z,99.90
2019-06-01T09:18:59.247Z,99.90
2019-06-01T09:21:29.418Z,99.90
2019-06-01T09:23:58.761Z,99.90
2019-06-01T09:26:29.644Z,99.90
2019-06-01T09:28:59.055Z,99.90
2019-06-01T09:31:28.471Z,99.90
2019-06-01T09:33:57.779Z,99.90
2019-06-01T09:36:28.247Z,99.90
2019-06-01T09:38:57.786Z,99.90
2019-06-01T09:41:27.326Z,99.90
2019-06-01T09:43:58.014Z,99.90
2019-06-01T09:46:27.328Z,99.90
2019-06-01T09:48:56.648Z,99.90
2019-06-01T09:51:27.341Z,99.90
2019-06-01T09:53:57.030Z,99.90
2019-06-01T09:56:29.095Z,99.90
2019-06-01T09:58:57.422Z,99.90
2019-06-01T10:01:28.024Z,99.90
2019-06-01T10:03:57.731Z,99.90
2019-06-01T10:06:28.267Z,99.90
2019-06-01T10:08:57.780Z,99.90
2019-06-01T10:11:27.386Z,99.90
2019-06-01T10:13:56.702Z,99.90
2019-06-01T10:16:26.096Z,99.90
2019-06-01T10:18:55.403Z,99.90
2019-06-01T10:21:24.892Z,99.90
2019-06-01T10:23:54.240Z,99.90
2019-06-01T10:26:23.539Z,99.90
2019-06-01T10:28:53.099Z,99.90
2019-06-01T10:31:22.399Z,99.90
2019-06-01T10:33:52.050Z,99.90
2019-06-01T10:36:21.798Z,99.90
2019-06-01T10:38:51.247Z,99.90
2019-06-01T10:41:20.581Z,99.90
2019-06-01T10:43:49.892Z,99.90
2019-06-01T10:46:19.246Z,99.90
2019-06-01T10:48:48.554Z,99.90
2019-06-01T10:51:17.852Z,99.90
2019-06-01T10:53:47.220Z,99.90
2019-06-01T10:56:16.522Z,99.90
2019-06-01T10:58:59.306Z,99.90
2019-06-01T11:01:17.002Z,99.90
2019-06-01T11:03:46.286Z,99.90
2019-06-01T11:06:15.583Z,99.90
2019-06-01T11:08:44.890Z,99.90
2019-06-01T11:11:14.258Z,99.90
2019-06-01T11:13:43.591Z,99.90
2019-06-01T11:16:12.886Z,99.90
2019-06-01T11:18:43.495Z,99.90
2019-06-01T11:21:13.012Z,99.90
2019-06-01T11:23:46.303Z,99.90
2019-06-01T11:26:13.783Z,99.90
2019-06-01T11:28:44.355Z,99.90
2019-06-01T11:31:13.776Z,99.90
2019-06-01T11:33:44.304Z,99.90
2019-06-01T11:36:13.951Z,99.90
2019-06-01T11:38:44.667Z,99.90
2019-06-01T11:41:18.345Z,99.90
2019-06-01T11:43:46.191Z,99.90
2019-06-01T11:46:15.739Z,99.90
2019-06-01T11:48:45.427Z,99.90
2019-06-01T11:51:14.928Z,99.90
2019-06-01T11:53:46.947Z,99.90
2019-06-01T11:56:16.252Z,99.90
2019-06-01T11:58:45.744Z,99.90
2019-06-01T12:01:14.973Z,99.90
2019-06-01T12:03:44.310Z,99.90
2019-06-01T12:06:13.705Z,99.90
2019-06-01T12:08:44.043Z,99.90
2019-06-01T12:11:13.645Z,99.90
2019-06-01T12:13:44.349Z,99.90
2019-06-01T12:16:13.805Z,99.90
2019-06-01T12:18:44.638Z,99.90
2019-06-01T12:21:14.069Z,99.90
2019-06-01T12:23:43.381Z,99.90
2019-06-01T12:26:12.737Z,99.90
2019-06-01T12:28:42.150Z,99.90
2019-06-01T12:31:11.449Z,99.90
2019-06-01T12:33:42.013Z,99.90
2019-06-01T12:36:11.418Z,99.90
2019-06-01T12:38:53.656Z,99.90
2019-06-01T12:41:24.298Z,99.90
2019-06-01T12:44:01.079Z,99.90
2019-06-01T12:46:30.307Z,99.90
2019-06-01T12:48:59.615Z,99.90
2019-06-01T12:51:28.938Z,99.90
2019-06-01T12:53:58.243Z,99.90
2019-06-01T12:56:27.571Z,99.90
2019-06-01T12:58:56.870Z,99.90
2019-06-01T13:01:26.204Z,99.30
2019-06-01T13:03:55.585Z,98.90
2019-06-01T13:06:57.986Z,99.00
2019-06-01T13:09:27.305Z,98.30
2019-06-01T13:11:56.609Z,97.80
2019-06-01T13:14:25.921Z,96.70
2019-06-01T13:17:06.274Z,95.40
2019-06-01T13:19:26.292Z,94.70
2019-06-01T13:21:56.615Z,96.50
2019-06-01T13:24:25.921Z,95.40
2019-06-01T13:26:55.280Z,96.70
2019-06-01T13:29:24.633Z,94.60
2019-06-01T13:31:54.217Z,95.30
2019-06-01T13:34:23.549Z,95.50
2019-06-01T13:36:53.067Z,94.90
2019-06-01T13:39:22.513Z,93.90
2019-06-01T13:41:51.879Z,93.00
2019-06-01T13:44:21.217Z,91.90
2019-06-01T13:46:51.511Z,90.20
2019-06-01T13:49:21.003Z,91.00
2019-06-01T13:51:50.522Z,90.40
2019-06-01T13:54:20.263Z,90.40
2019-06-01T13:56:50.870Z,87.80
2019-06-01T13:59:20.545Z,88.90
2019-06-01T14:01:51.404Z,86.40
2019-06-01T14:04:20.728Z,86.50
2019-06-01T14:06:51.159Z,84.80
2019-06-01T14:09:22.009Z,86.80
2019-06-01T14:11:51.635Z,87.90
2019-06-01T14:14:20.934Z,89.90
2019-06-01T14:16:51.614Z,89.30
2019-06-01T14:19:21.130Z,88.60
2019-06-01T14:21:52.162Z,86.40
2019-06-01T14:24:21.822Z,85.10
2019-06-01T14:26:52.316Z,82.80
2019-06-01T14:29:21.978Z,82.20
2019-06-01T14:31:52.164Z,81.10
2019-06-01T14:34:22.406Z,81.20
2019-06-01T14:36:52.699Z,79.30
2019-06-01T14:39:22.180Z,80.20
2019-06-01T14:41:51.525Z,76.60
2019-06-01T14:44:20.817Z,76.60
2019-06-01T14:46:55.158Z,76.50
2019-06-01T14:49:21.190Z,76.20
2019-06-01T14:51:51.530Z,76.10
2019-06-01T14:54:21.119Z,74.50
2019-06-01T14:56:51.706Z,76.90
2019-06-01T14:59:21.200Z,74.60
2019-06-01T15:01:50.509Z,74.70
2019-06-01T15:04:19.820Z,74.40
2019-06-01T15:06:50.229Z,73.30
2019-06-01T15:09:20.110Z,71.50
2019-06-01T15:11:50.620Z,69.60
2019-06-01T15:14:20.466Z,68.80
2019-06-01T15:16:49.815Z,67.30
2019-06-01T15:19:19.143Z,68.00
2019-06-01T15:21:49.770Z,65.50
2019-06-01T15:24:19.559Z,65.50
2019-06-01T15:26:50.447Z,65.30
2019-06-01T15:29:19.960Z,66.00
2019-06-01T15:31:49.278Z,65.40
2019-06-01T15:34:18.574Z,65.80
2019-06-01T15:36:48.677Z,65.50
2019-06-01T15:39:24.723Z,64.70
2019-06-01T15:41:51.159Z,64.50
2019-06-01T15:44:21.311Z,64.30
2019-06-01T15:46:51.537Z,66.40
2019-06-01T15:49:21.119Z,63.60
2019-06-01T15:51:51.759Z,61.40
2019-06-01T15:54:26.392Z,63.40
2019-06-01T15:56:56.345Z,62.50
2019-06-01T15:59:26.018Z,65.30
2019-06-01T16:01:57.139Z,61.40
2019-06-01T16:04:26.704Z,61.30
2019-06-01T16:06:57.157Z,61.40
2019-06-01T16:09:41.555Z,59.20
2019-06-01T16:11:59.486Z,59.60
2019-06-01T16:14:28.966Z,60.70
2019-06-01T16:16:58.360Z,63.50
2019-06-01T16:19:27.733Z,61.30
2019-06-01T16:21:58.082Z,62.70
2019-06-01T16:24:27.558Z,59.50
2019-06-01T16:26:56.849Z,59.30
2019-06-01T16:29:26.156Z,58.40
2019-06-01T16:31:56.662Z,58.40
2019-06-01T16:34:26.262Z,58.10
2019-06-01T16:36:56.732Z,57.60
2019-06-01T16:39:26.215Z,57.80
2019-06-01T16:41:55.654Z,57.90
2019-06-01T16:44:24.989Z,57.30
2019-06-01T16:46:55.487Z,58.20
2019-06-01T16:49:27.243Z,57.60
2019-06-01T16:51:59.220Z,58.30
2019-06-01T16:54:28.653Z,58.40
2019-06-01T16:56:58.091Z,57.30
2019-06-01T16:59:27.537Z,58.40
2019-06-01T17:01:56.834Z,58.60
2019-06-01T17:04:26.188Z,58.40
2019-06-01T17:06:56.554Z,59.10
2019-06-01T17:09:26.291Z,58.40
2019-06-01T17:11:56.637Z,57.80
2019-06-01T17:14:26.226Z,57.30
2019-06-01T17:17:34.981Z,57.20
2019-06-01T17:20:07.380Z,57.30
2019-06-01T17:22:36.776Z,57.60
2019-06-01T17:25:08.092Z,58.80
2019-06-01T17:27:37.387Z,58.20
2019-06-01T17:30:10.422Z,59.30
2019-06-01T17:32:38.591Z,59.80
2019-06-01T17:35:09.065Z,59.40
2019-06-01T17:37:38.694Z,58.60
2019-06-01T17:40:08.716Z,58.60
2019-06-01T17:42:38.116Z,58.80
2019-06-01T17:45:09.493Z,58.60
2019-06-01T17:47:40.938Z,59.00
2019-06-01T17:50:11.787Z,60.70
2019-06-01T17:52:41.226Z,59.70
2019-06-01T17:55:13.199Z,60.80
2019-06-01T17:57:42.589Z,62.70
2019-06-01T18:00:12.050Z,62.40
2019-06-01T18:02:41.345Z,66.10
2019-06-01T18:05:12.097Z,66.00
2019-06-01T18:07:41.672Z,65.20
2019-06-01T18:10:12.175Z,64.10
2019-06-01T18:12:42.059Z,66.30
2019-06-01T18:15:12.853Z,67.50
2019-06-01T18:17:43.118Z,69.20
2019-06-01T18:20:13.476Z,67.90
2019-06-01T18:22:42.845Z,70.10
2019-06-01T18:25:19.490Z,73.40
2019-06-01T18:27:48.796Z,73.40
2019-06-01T18:30:18.459Z,72.30
2019-06-01T18:32:47.923Z,75.10
2019-06-01T18:39:07.582Z,77.30
2019-06-01T18:43:03.633Z,78.60
2019-06-01T18:45:34.165Z,78.60
2019-06-01T18:48:04.366Z,79.70
2019-06-01T18:50:34.249Z,80.50
2019-06-01T18:53:04.030Z,82.60
2019-06-01T18:55:35.804Z,83.30
2019-06-01T18:58:06.363Z,84.00
2019-06-01T19:00:39.615Z,83.80
2019-06-01T19:03:09.000Z,85.60
2019-06-01T19:05:38.594Z,85.50
2019-06-01T19:08:07.880Z,87.40
2019-06-01T19:10:37.648Z,88.00
2019-06-01T19:17:08.238Z,88.60
2019-06-01T19:19:37.827Z,89.60
2019-06-01T19:22:08.357Z,89.80
2019-06-01T19:24:38.077Z,89.60
2019-06-01T19:27:08.593Z,90.60
2019-06-01T19:29:38.097Z,90.30
2019-06-01T19:32:08.695Z,91.30
2019-06-01T19:34:38.212Z,91.90
2019-06-01T19:37:08.882Z,92.30
2019-06-01T19:39:39.370Z,92.40
2019-06-01T19:42:09.162Z,92.60
2019-06-01T19:44:38.493Z,92.70
2019-06-01T19:47:08.193Z,92.70
2019-06-01T19:49:37.646Z,93.00
2019-06-01T19:52:06.995Z,92.80
2019-06-01T19:54:36.305Z,93.60
2019-06-01T19:57:05.664Z,94.40
2019-06-01T19:59:34.970Z,93.50
2019-06-01T20:02:04.281Z,93.60
2019-06-01T20:04:33.597Z,94.40
2019-06-01T20:07:02.940Z,95.40
2019-06-01T20:09:32.262Z,96.00
2019-06-01T20:13:00.977Z,96.20
2019-06-01T20:15:30.296Z,96.30
2019-06-01T20:17:59.614Z,96.60
2019-06-01T20:20:28.999Z,97.40
2019-06-01T20:22:58.315Z,98.20
2019-06-01T20:25:27.630Z,99.40
2019-06-01T20:27:56.922Z,99.90
2019-06-01T20:30:26.293Z,99.90
2019-06-01T20:32:55.601Z,99.90
2019-06-01T20:35:24.906Z,99.90
2019-06-01T20:37:54.220Z,99.90
2019-06-01T20:40:23.519Z,99.90
2019-06-01T20:42:52.837Z,99.90
2019-06-01T20:45:22.908Z,99.90
2019-06-01T20:47:52.471Z,99.90
2019-06-01T20:50:22.852Z,99.90
2019-06-01T20:52:52.281Z,99.90
2019-06-01T20:55:21.584Z,99.90
2019-06-01T20:57:50.900Z,99.90
2019-06-01T21:00:21.875Z,99.90
2019-06-01T21:02:51.496Z,99.90
2019-06-01T21:05:22.006Z,99.90
2019-06-01T21:07:51.610Z,99.90
2019-06-01T21:10:22.300Z,99.90
2019-06-01T21:12:51.810Z,99.90
2019-06-01T21:15:21.399Z,99.90
2019-06-01T21:17:51.076Z,99.90
2019-06-01T21:20:26.861Z,99.90
2019-06-01T21:22:51.638Z,99.90
2019-06-01T21:25:20.956Z,99.90
2019-06-01T21:27:50.275Z,99.90
2019-06-01T21:30:22.331Z,99.90
2019-06-01T21:32:51.290Z,99.90
2019-06-01T21:35:21.370Z,99.90
2019-06-01T21:37:50.905Z,99.90
2019-06-01T21:40:21.406Z,99.90
2019-06-01T21:43:02.734Z,99.90
2019-06-01T21:45:21.872Z,99.90
2019-06-01T21:47:51.199Z,99.90
2019-06-01T21:50:21.912Z,99.90
2019-06-01T21:52:51.460Z,99.90
2019-06-01T21:55:20.768Z,99.90
2019-06-01T21:57:50.088Z,99.90
2019-06-01T22:00:34.876Z,99.90
2019-06-01T22:03:05.084Z,99.90
2019-06-01T22:05:34.377Z,99.90
2019-06-01T22:08:04.223Z,99.90
2019-06-01T22:10:33.539Z,99.90
2019-06-01T22:13:17.607Z,99.90
2019-06-01T22:15:33.882Z,99.90
2019-06-01T22:18:03.185Z,99.90
2019-06-01T22:20:35.333Z,99.90
2019-06-01T22:23:05.599Z,99.90
2019-06-01T22:25:34.918Z,99.90
2019-06-01T22:28:04.482Z,99.90
2019-06-01T22:30:34.089Z,99.90
2019-06-01T22:33:03.393Z,99.90
2019-06-01T22:35:33.237Z,99.90
2019-06-01T22:38:02.544Z,99.90
2019-06-01T22:40:31.889Z,99.90
2019-06-01T22:43:01.199Z,99.90
2019-06-01T22:45:30.788Z,99.90
2019-06-01T22:48:00.110Z,99.90
2019-06-01T22:50:29.434Z,99.90
2019-06-01T22:52:59.101Z,99.90
2019-06-01T22:55:28.513Z,99.90
2019-06-01T22:57:57.807Z,99.90
2019-06-01T23:00:27.865Z,99.90
2019-06-01T23:02:57.306Z,99.90
2019-06-01T23:05:27.039Z,99.90
2019-06-01T23:07:56.606Z,99.90
2019-06-01T23:10:29.970Z,99.90
2019-06-01T23:12:56.978Z,99.90
2019-06-01T23:15:27.866Z,99.90
2019-06-01T23:17:57.492Z,99.90
2019-06-01T23:20:27.956Z,99.90
2019-06-01T23:22:57.326Z,99.90
2019-06-01T23:25:26.627Z,99.90
2019-06-01T23:27:56.247Z,99.90
2019-06-01T23:30:26.310Z,99.90
2019-06-01T23:32:55.749Z,99.90
2019-06-01T23:35:26.328Z,99.90
2019-06-01T23:37:56.109Z,99.90
2019-06-01T23:40:26.546Z,99.90
2019-06-01T23:42:55.980Z,99.90
2019-06-01T23:45:25.306Z,99.90
2019-06-01T23:47:54.600Z,99.90
2019-06-01T23:50:24.985Z,99.90
2019-06-01T23:52:54.424Z,99.90
2019-06-01T23:55:24.081Z,99.90
2019-06-01T23:57:54.962Z,99.90
